createdAt,value
2018-09-23T00:00:26.837Z,88.00
2018-09-23T00:02:55.954Z,87.50
2018-09-23T00:05:24.759Z,87.20
2018-09-23T00:07:53.881Z,87.60
2018-09-23T00:10:22.658Z,87.70
2018-09-23T00:12:51.425Z,87.80
2018-09-23T00:15:20.265Z,87.20
2018-09-23T00:17:49.004Z,87.00
2018-09-23T00:20:17.871Z,87.10
2018-09-23T00:22:46.615Z,87.60
2018-09-23T00:25:15.365Z,87.80
2018-09-23T00:27:44.130Z,87.30
2018-09-23T00:30:14.384Z,87.20
2018-09-23T00:32:43.206Z,87.10
2018-09-23T00:35:12.461Z,87.90
2018-09-23T00:37:41.229Z,87.70
2018-09-23T00:40:10.071Z,87.60
2018-09-23T00:42:38.867Z,87.40
2018-09-23T00:45:07.692Z,87.50
2018-09-23T00:47:36.480Z,87.30
2018-09-23T00:50:05.679Z,87.80
2018-09-23T00:52:34.461Z,87.60
2018-09-23T00:55:03.421Z,87.90
2018-09-23T00:57:32.193Z,87.80
2018-09-23T01:00:00.956Z,87.10
2018-09-23T01:02:29.788Z,87.50
2018-09-23T01:04:58.544Z,87.10
2018-09-23T01:07:27.321Z,87.50
2018-09-23T01:09:56.109Z,87.90
2018-09-23T01:12:24.910Z,87.70
2018-09-23T01:14:53.744Z,87.90
2018-09-23T01:17:22.514Z,87.70
2018-09-23T01:19:51.265Z,88.20
2018-09-23T01:22:20.108Z,88.20
2018-09-23T01:24:48.860Z,87.80
2018-09-23T01:27:17.600Z,88.40
2018-09-23T01:29:46.404Z,87.70
2018-09-23T01:32:15.163Z,87.00
2018-09-23T01:34:43.961Z,87.10
2018-09-23T01:37:12.819Z,87.90
2018-09-23T01:39:41.615Z,87.90
2018-09-23T01:42:10.384Z,87.70
2018-09-23T01:44:39.183Z,87.60
2018-09-23T01:47:07.932Z,87.40
2018-09-23T01:49:36.693Z,86.80
2018-09-23T01:52:05.614Z,87.20
2018-09-23T01:54:34.387Z,87.00
2018-09-23T01:57:03.144Z,86.60
2018-09-23T01:59:31.890Z,86.60
2018-09-23T02:02:00.674Z,87.00
2018-09-23T02:04:29.411Z,86.80
2018-09-23T02:06:58.204Z,86.90
2018-09-23T02:09:26.958Z,86.80
2018-09-23T02:11:55.769Z,87.10
2018-09-23T02:14:24.550Z,87.70
2018-09-23T02:17:05.263Z,87.10
2018-09-23T02:19:34.065Z,87.00
2018-09-23T02:22:02.872Z,87.60
2018-09-23T02:24:31.593Z,87.60
2018-09-23T02:27:00.415Z,87.40
2018-09-23T02:29:29.177Z,87.00
2018-09-23T02:31:57.948Z,87.10
2018-09-23T02:34:26.688Z,86.50
2018-09-23T02:36:55.449Z,86.70
2018-09-23T02:39:24.257Z,87.00
2018-09-23T02:41:53.014Z,87.30
2018-09-23T02:44:21.781Z,87.90
2018-09-23T02:46:50.554Z,88.00
2018-09-23T02:49:19.421Z,87.60
2018-09-23T02:51:48.191Z,87.30
2018-09-23T02:54:16.972Z,87.30
2018-09-23T02:56:45.809Z,88.00
2018-09-23T02:59:14.617Z,87.90
2018-09-23T03:01:43.458Z,87.60
2018-09-23T03:04:12.232Z,87.90
2018-09-23T03:06:40.991Z,87.90
2018-09-23T03:09:09.775Z,88.40
2018-09-23T03:11:38.600Z,87.90
2018-09-23T03:14:07.396Z,88.30
2018-09-23T03:16:36.214Z,87.90
2018-09-23T03:19:05.046Z,87.70
2018-09-23T03:21:33.829Z,87.40
2018-09-23T03:24:02.605Z,88.00
2018-09-23T03:26:31.361Z,87.00
2018-09-23T03:29:00.188Z,86.60
2018-09-23T03:31:28.955Z,86.20
2018-09-23T03:33:57.695Z,86.20
2018-09-23T03:36:26.551Z,86.60
2018-09-23T03:38:55.446Z,86.50
2018-09-23T03:41:24.257Z,85.50
2018-09-23T03:43:53.062Z,85.10
2018-09-23T03:46:21.903Z,85.40
2018-09-23T03:48:50.662Z,86.30
2018-09-23T03:51:19.423Z,86.50
2018-09-23T03:53:48.222Z,86.30
2018-09-23T03:56:16.961Z,85.80
2018-09-23T03:58:45.725Z,85.00
2018-09-23T04:01:14.475Z,85.00
2018-09-23T04:03:43.308Z,86.10
2018-09-23T04:06:12.087Z,86.50
2018-09-23T04:08:40.937Z,87.00
2018-09-23T04:11:09.696Z,87.00
2018-09-23T04:13:38.561Z,87.00
2018-09-23T04:16:07.380Z,86.30
2018-09-23T04:18:36.152Z,86.10
2018-09-23T04:21:04.978Z,86.10
2018-09-23T04:23:33.746Z,85.40
2018-09-23T04:26:02.513Z,85.20
2018-09-23T04:28:31.305Z,85.70
2018-09-23T04:31:00.134Z,85.20
2018-09-23T04:33:28.926Z,84.70
2018-09-23T04:35:57.680Z,84.40
2018-09-23T04:38:26.763Z,84.70
2018-09-23T04:40:55.514Z,84.80
2018-09-23T04:43:24.258Z,85.20
2018-09-23T04:45:53.112Z,85.00
2018-09-23T04:48:21.894Z,84.90
2018-09-23T04:50:50.676Z,84.90
2018-09-23T04:53:19.453Z,85.50
2018-09-23T04:55:48.194Z,85.70
2018-09-23T04:58:17.024Z,86.20
2018-09-23T05:00:45.842Z,85.50
2018-09-23T05:03:14.611Z,84.50
2018-09-23T05:05:43.400Z,84.30
2018-09-23T05:08:12.184Z,84.70
2018-09-23T05:10:41.006Z,85.80
2018-09-23T05:13:09.906Z,86.10
2018-09-23T05:15:38.698Z,85.70
2018-09-23T05:18:07.469Z,86.20
2018-09-23T05:20:36.252Z,86.50
2018-09-23T05:23:05.077Z,87.30
2018-09-23T05:25:33.848Z,87.80
2018-09-23T05:28:04.796Z,87.30
2018-09-23T05:30:33.573Z,87.40
2018-09-23T05:33:02.394Z,87.00
2018-09-23T05:35:31.305Z,86.50
2018-09-23T05:38:00.213Z,86.30
2018-09-23T05:40:29.221Z,86.70
2018-09-23T05:42:59.541Z,86.30
2018-09-23T05:45:28.545Z,86.60
2018-09-23T05:47:57.346Z,87.00
2018-09-23T05:50:26.126Z,87.10
2018-09-23T05:52:54.961Z,87.10
2018-09-23T05:55:23.746Z,86.70
2018-09-23T05:57:52.545Z,86.50
2018-09-23T06:00:21.417Z,86.20
2018-09-23T06:02:58.032Z,85.80
2018-09-23T06:05:29.044Z,85.60
2018-09-23T06:07:58.380Z,86.60
2018-09-23T06:10:27.129Z,85.90
2018-09-23T06:12:55.904Z,85.80
2018-09-23T06:15:24.706Z,85.40
2018-09-23T06:17:53.519Z,85.30
2018-09-23T06:20:22.375Z,84.70
2018-09-23T06:22:51.165Z,84.80
2018-09-23T06:25:20.077Z,86.10
2018-09-23T06:27:48.802Z,86.00
2018-09-23T06:30:17.559Z,85.00
2018-09-23T06:32:49.025Z,84.50
2018-09-23T06:35:17.848Z,84.40
2018-09-23T06:37:46.613Z,83.80
2018-09-23T06:40:15.564Z,83.70
2018-09-23T06:42:44.364Z,84.10
2018-09-23T06:45:13.129Z,84.30
2018-09-23T06:47:41.879Z,84.40
2018-09-23T06:50:11.177Z,84.10
2018-09-23T06:52:39.955Z,84.40
2018-09-23T06:55:08.777Z,84.40
2018-09-23T06:57:37.724Z,83.90
2018-09-23T07:00:06.556Z,85.10
2018-09-23T07:02:35.389Z,84.40
2018-09-23T07:05:04.258Z,84.40
2018-09-23T07:07:33.298Z,84.40
2018-09-23T07:10:02.073Z,84.40
2018-09-23T07:12:30.809Z,84.70
2018-09-23T07:14:59.583Z,84.20
2018-09-23T07:17:28.417Z,84.30
2018-09-23T07:19:57.357Z,83.80
2018-09-23T07:22:26.129Z,83.60
2018-09-23T07:24:54.983Z,83.90
2018-09-23T07:27:24.318Z,84.00
2018-09-23T07:29:53.386Z,84.40
2018-09-23T07:32:26.029Z,83.40
2018-09-23T07:35:09.382Z,83.80
2018-09-23T07:37:38.190Z,83.90
2018-09-23T07:40:07.047Z,83.80
2018-09-23T07:42:35.822Z,83.40
2018-09-23T07:45:07.944Z,83.00
2018-09-23T07:47:37.899Z,83.70
2018-09-23T07:50:06.883Z,84.30
2018-09-23T07:52:35.766Z,84.50
2018-09-23T07:55:04.576Z,83.60
2018-09-23T07:57:33.345Z,83.10
2018-09-23T08:00:02.161Z,83.50
2018-09-23T08:02:31.168Z,82.70
2018-09-23T08:04:59.945Z,82.60
2018-09-23T08:07:28.712Z,82.20
2018-09-23T08:09:57.470Z,82.40
2018-09-23T08:12:26.512Z,81.90
2018-09-23T08:14:56.709Z,81.80
2018-09-23T08:17:25.012Z,81.50
2018-09-23T08:19:54.256Z,80.90
2018-09-23T08:22:22.973Z,80.80
2018-09-23T08:24:51.807Z,81.00
2018-09-23T08:27:20.702Z,80.80
2018-09-23T08:29:50.097Z,81.50
2018-09-23T08:32:21.047Z,81.50
2018-09-23T08:34:49.794Z,81.50
2018-09-23T08:37:18.580Z,81.10
2018-09-23T08:39:49.122Z,79.90
2018-09-23T08:42:17.934Z,80.50
2018-09-23T08:44:50.683Z,80.80
2018-09-23T08:47:19.544Z,81.70
2018-09-23T08:49:48.329Z,81.00
2018-09-23T08:52:18.779Z,81.00
2018-09-23T08:54:47.736Z,81.40
2018-09-23T08:57:16.817Z,81.50
2018-09-23T08:59:45.605Z,80.60
2018-09-23T09:02:15.776Z,81.40
2018-09-23T09:04:46.836Z,80.80
2018-09-23T09:07:17.870Z,80.50
2018-09-23T09:09:47.517Z,80.70
2018-09-23T09:12:20.206Z,80.70
2018-09-23T09:14:49.283Z,80.70
2018-09-23T09:17:18.096Z,80.80
2018-09-23T09:19:47.073Z,81.10
2018-09-23T09:22:15.947Z,81.60
2018-09-23T09:24:46.160Z,81.60
2018-09-23T09:27:16.049Z,81.70
2018-09-23T09:29:48.790Z,81.60
2018-09-23T09:32:17.737Z,81.10
2018-09-23T09:34:48.295Z,81.10
2018-09-23T09:37:17.115Z,82.20
2018-09-23T09:39:46.047Z,82.00
2018-09-23T09:42:14.843Z,82.30
2018-09-23T09:44:43.917Z,82.00
2018-09-23T09:47:12.961Z,82.00
2018-09-23T09:49:42.466Z,82.90
2018-09-23T09:52:11.312Z,83.30
2018-09-23T09:54:40.589Z,83.20
2018-09-23T09:57:09.557Z,82.90
2018-09-23T09:59:38.450Z,82.80
2018-09-23T10:02:08.266Z,82.90
2018-09-23T10:04:38.436Z,84.20
2018-09-23T10:07:07.653Z,84.50
2018-09-23T10:09:36.427Z,83.80
2018-09-23T10:12:05.431Z,83.30
2018-09-23T10:14:34.431Z,83.90
2018-09-23T10:17:03.491Z,83.30
2018-09-23T10:19:32.250Z,83.00
2018-09-23T10:22:01.102Z,83.00
2018-09-23T10:24:29.924Z,83.60
2018-09-23T10:26:59.673Z,83.50
2018-09-23T10:29:28.524Z,83.80
2018-09-23T10:31:57.292Z,84.10
2018-09-23T10:34:26.061Z,83.10
2018-09-23T10:36:54.840Z,83.10
2018-09-23T10:39:23.576Z,83.50
2018-09-23T10:41:52.480Z,83.30
2018-09-23T10:44:21.320Z,83.50
2018-09-23T10:46:50.105Z,83.70
2018-09-23T10:49:18.905Z,84.00
2018-09-23T10:51:47.711Z,84.30
2018-09-23T10:54:16.476Z,83.30
2018-09-23T10:56:45.216Z,83.20
2018-09-23T10:59:14.432Z,83.20
2018-09-23T11:01:45.106Z,84.10
2018-09-23T11:04:14.629Z,84.00
2018-09-23T11:06:43.416Z,86.30
2018-09-23T11:09:12.176Z,86.50
2018-09-23T11:11:40.972Z,86.50
2018-09-23T11:14:09.937Z,86.90
2018-09-23T11:16:38.693Z,85.30
2018-09-23T11:19:07.595Z,83.70
2018-09-23T11:22:05.379Z,83.10
2018-09-23T11:25:04.745Z,84.50
2018-09-23T11:27:35.852Z,85.10
2018-09-23T11:30:04.982Z,85.20
2018-09-23T11:32:34.305Z,85.30
2018-09-23T11:35:03.167Z,84.70
2018-09-23T11:37:31.941Z,85.90
2018-09-23T11:40:00.998Z,86.30
2018-09-23T11:42:30.017Z,85.50
2018-09-23T11:44:58.778Z,86.00
2018-09-23T11:47:29.263Z,86.70
2018-09-23T11:49:58.393Z,84.20
2018-09-23T11:52:27.165Z,85.50
2018-09-23T11:54:56.968Z,84.70
2018-09-23T11:57:29.486Z,85.10
2018-09-23T11:59:58.413Z,83.70
2018-09-23T12:02:29.196Z,82.70
2018-09-23T12:04:58.290Z,84.00
2018-09-23T12:07:27.073Z,85.30
2018-09-23T12:09:56.828Z,86.30
2018-09-23T12:12:25.663Z,86.70
2018-09-23T12:14:54.780Z,87.20
2018-09-23T12:17:23.629Z,87.40
2018-09-23T12:19:52.516Z,87.90
2018-09-23T12:22:22.106Z,86.90
2018-09-23T12:24:53.493Z,86.60
2018-09-23T12:27:23.098Z,86.30
2018-09-23T12:29:51.877Z,85.30
2018-09-23T12:32:20.701Z,83.50
2018-09-23T12:34:49.529Z,82.90
2018-09-23T12:37:18.858Z,82.60
2018-09-23T12:39:48.476Z,82.10
2018-09-23T12:42:17.545Z,82.70
2018-09-23T12:44:46.306Z,82.90
2018-09-23T12:47:15.599Z,83.20
2018-09-23T12:49:44.679Z,83.20
2018-09-23T12:52:13.449Z,83.60
2018-09-23T12:54:42.248Z,85.50
2018-09-23T12:57:11.025Z,85.90
2018-09-23T12:59:39.840Z,86.60
2018-09-23T13:02:08.882Z,84.60
2018-09-23T13:04:44.339Z,84.30
2018-09-23T13:07:13.098Z,85.40
2018-09-23T13:09:41.917Z,84.50
2018-09-23T13:12:10.659Z,83.70
2018-09-23T13:14:39.450Z,85.40
2018-09-23T13:17:08.180Z,86.40
2018-09-23T13:19:37.012Z,85.30
2018-09-23T13:22:06.019Z,85.00
2018-09-23T13:24:34.805Z,86.40
2018-09-23T13:27:05.597Z,86.90
2018-09-23T13:29:34.474Z,86.10
2018-09-23T13:32:03.545Z,86.60
2018-09-23T13:34:33.408Z,86.80
2018-09-23T13:37:02.335Z,85.70
2018-09-23T13:39:32.353Z,86.40
2018-09-23T13:42:01.214Z,86.10
2018-09-23T13:44:31.091Z,86.10
2018-09-23T13:47:00.007Z,86.00
2018-09-23T13:49:29.275Z,87.20
2018-09-23T13:51:58.518Z,87.50
2018-09-23T13:54:28.517Z,87.80
2018-09-23T13:56:58.487Z,87.50
2018-09-23T13:59:28.292Z,87.20
2018-09-23T14:01:58.479Z,86.80
2018-09-23T14:04:28.345Z,86.50
2018-09-23T14:06:57.113Z,85.30
2018-09-23T14:09:28.803Z,83.80
2018-09-23T14:11:59.245Z,84.50
2018-09-23T14:14:28.249Z,84.70
2018-09-23T14:16:57.131Z,85.90
2018-09-23T14:19:27.574Z,86.90
2018-09-23T14:21:57.824Z,87.20
2018-09-23T14:24:26.786Z,87.80
2018-09-23T14:26:57.045Z,87.80
2018-09-23T14:29:26.028Z,87.70
2018-09-23T14:31:54.922Z,87.40
2018-09-23T14:34:23.783Z,86.90
2018-09-23T14:36:52.548Z,86.40
2018-09-23T14:39:21.333Z,88.10
2018-09-23T14:41:51.852Z,87.60
2018-09-23T14:44:23.322Z,87.60
2018-09-23T14:46:53.164Z,87.20
2018-09-23T14:49:21.953Z,87.90
2018-09-23T14:51:52.494Z,87.50
2018-09-23T14:54:21.302Z,87.60
2018-09-23T14:56:54.367Z,87.10
2018-09-23T14:59:23.758Z,86.70
2018-09-23T15:01:53.082Z,85.90
2018-09-23T15:04:23.123Z,86.20
2018-09-23T15:06:53.656Z,86.40
2018-09-23T15:09:22.632Z,86.60
2018-09-23T15:11:52.924Z,87.00
2018-09-23T15:14:21.828Z,87.00
2018-09-23T15:16:50.577Z,86.70
2018-09-23T15:19:20.645Z,86.40
2018-09-23T15:21:51.243Z,86.20
2018-09-23T15:24:23.904Z,86.80
2018-09-23T15:26:54.629Z,86.40
2018-09-23T15:29:23.585Z,86.10
2018-09-23T15:31:52.576Z,85.80
2018-09-23T15:34:22.429Z,86.00
2018-09-23T15:36:53.832Z,86.00
2018-09-23T15:39:22.596Z,86.10
2018-09-23T15:41:51.482Z,86.90
2018-09-23T15:44:20.608Z,86.50
2018-09-23T15:46:49.416Z,86.20
2018-09-23T15:49:19.820Z,86.20
2018-09-23T15:51:49.588Z,86.10
2018-09-23T15:54:19.944Z,85.70
2018-09-23T15:56:50.125Z,85.60
2018-09-23T15:59:19.066Z,85.50
2018-09-23T16:01:48.896Z,86.10
2018-09-23T16:04:17.748Z,86.10
2018-09-23T16:06:46.795Z,84.40
2018-09-23T16:09:15.657Z,85.10
2018-09-23T16:11:44.520Z,84.10
2018-09-23T16:14:13.360Z,83.80
2018-09-23T16:16:42.536Z,84.10
2018-09-23T16:19:11.563Z,85.20
2018-09-23T16:21:40.811Z,85.70
2018-09-23T16:24:09.649Z,84.20
2018-09-23T16:26:38.485Z,85.10
2018-09-23T16:29:07.463Z,85.20
2018-09-23T16:31:36.278Z,85.40
2018-09-23T16:34:07.690Z,85.50
2018-09-23T16:36:36.485Z,85.40
2018-09-23T16:39:08.316Z,85.80
2018-09-23T16:41:41.799Z,86.20
2018-09-23T16:44:12.644Z,86.40
2018-09-23T16:46:42.603Z,86.10
2018-09-23T16:49:11.797Z,86.50
2018-09-23T16:51:40.798Z,86.10
2018-09-23T16:54:09.541Z,85.30
2018-09-23T16:56:38.309Z,85.80
2018-09-23T16:59:11.445Z,85.90
2018-09-23T17:01:40.276Z,86.40
2018-09-23T17:04:09.090Z,85.80
2018-09-23T17:06:37.834Z,85.60
2018-09-23T17:09:09.093Z,85.60
2018-09-23T17:11:39.387Z,86.40
2018-09-23T17:14:12.555Z,86.40
2018-09-23T17:16:44.382Z,86.00
2018-09-23T17:19:13.354Z,85.70
2018-09-23T17:21:43.792Z,85.70
2018-09-23T17:24:13.799Z,84.70
2018-09-23T17:26:44.830Z,84.50
2018-09-23T17:29:13.621Z,85.20
2018-09-23T17:31:47.468Z,85.10
2018-09-23T17:34:17.435Z,85.70
2018-09-23T17:36:46.298Z,85.00
2018-09-23T17:39:15.073Z,85.30
2018-09-23T17:41:44.013Z,85.40
2018-09-23T17:44:12.849Z,85.50
2018-09-23T17:46:41.631Z,85.40
2018-09-23T17:49:11.413Z,85.40
2018-09-23T17:51:42.340Z,84.80
2018-09-23T17:54:11.417Z,85.00
2018-09-23T17:56:40.203Z,84.80
2018-09-23T17:59:09.971Z,85.30
2018-09-23T18:01:43.066Z,85.20
2018-09-23T18:04:11.963Z,85.00
2018-09-23T18:06:41.067Z,85.50
2018-09-23T18:09:11.138Z,84.80
2018-09-23T18:11:41.339Z,85.10
2018-09-23T18:14:10.211Z,85.30
2018-09-23T18:16:39.854Z,84.80
2018-09-23T18:19:09.877Z,84.80
2018-09-23T18:21:38.719Z,84.70
2018-09-23T18:24:08.139Z,84.40
2018-09-23T18:26:37.217Z,84.60
2018-09-23T18:29:06.144Z,84.60
2018-09-23T18:31:34.948Z,84.20
2018-09-23T18:34:03.784Z,83.80
2018-09-23T18:36:32.693Z,84.50
2018-09-23T18:39:01.478Z,84.40
2018-09-23T18:41:30.369Z,84.50
2018-09-23T18:43:59.132Z,84.30
2018-09-23T18:46:27.902Z,84.60
2018-09-23T18:48:56.659Z,84.50
2018-09-23T18:51:25.472Z,84.70
2018-09-23T18:53:59.465Z,84.40
2018-09-23T18:56:28.744Z,84.50
2018-09-23T18:58:57.522Z,84.80
2018-09-23T19:01:33.804Z,84.80
2018-09-23T19:04:07.163Z,85.70
2018-09-23T19:06:36.364Z,85.80
2018-09-23T19:09:07.266Z,84.70
2018-09-23T19:11:37.054Z,85.30
2018-09-23T19:14:05.911Z,84.70
2018-09-23T19:16:37.293Z,84.50
2018-09-23T19:19:07.914Z,84.50
2018-09-23T19:21:36.912Z,84.40
2018-09-23T19:24:05.700Z,84.10
2018-09-23T19:26:34.626Z,83.70
2018-09-23T19:29:04.225Z,83.10
2018-09-23T19:31:33.510Z,83.00
2018-09-23T19:34:02.665Z,82.50
2018-09-23T19:36:31.872Z,82.50
2018-09-23T19:39:00.646Z,82.70
2018-09-23T19:41:29.426Z,82.30
2018-09-23T19:43:58.549Z,81.70
2018-09-23T19:46:27.614Z,81.90
2018-09-23T19:48:56.413Z,81.20
2018-09-23T19:51:26.985Z,80.20
2018-09-23T19:53:57.558Z,79.30
2018-09-23T19:56:26.419Z,79.50
2018-09-23T19:58:56.999Z,80.20
2018-09-23T20:01:25.875Z,80.20
2018-09-23T20:03:54.697Z,81.10
2018-09-23T20:06:24.786Z,81.20
2018-09-23T20:08:53.635Z,81.80
2018-09-23T20:11:23.090Z,82.40
2018-09-23T20:13:52.145Z,82.40
2018-09-23T20:16:20.934Z,82.70
2018-09-23T20:18:49.975Z,83.20
2018-09-23T20:21:18.821Z,83.20
2018-09-23T20:23:47.612Z,83.40
2018-09-23T20:26:16.433Z,83.70
2018-09-23T20:28:45.225Z,83.70
2018-09-23T20:31:14.028Z,84.30
2018-09-23T20:33:42.817Z,83.90
2018-09-23T20:36:11.589Z,83.80
2018-09-23T20:38:40.396Z,83.50
2018-09-23T20:41:09.317Z,83.60
2018-09-23T20:43:38.231Z,83.50
2018-09-23T20:46:07.135Z,83.40
2018-09-23T20:48:35.933Z,83.00
2018-09-23T20:51:04.705Z,82.80
2018-09-23T20:53:33.580Z,82.20
2018-09-23T20:56:02.355Z,82.20
2018-09-23T20:58:31.480Z,82.30
2018-09-23T21:01:00.250Z,82.20
2018-09-23T21:03:29.035Z,82.20
2018-09-23T21:05:58.164Z,82.20
2018-09-23T21:08:26.933Z,82.20
2018-09-23T21:10:55.694Z,82.00
2018-09-23T21:13:24.480Z,82.00
2018-09-23T21:15:53.632Z,82.00
2018-09-23T21:18:22.418Z,82.20
2018-09-23T21:20:51.180Z,82.10
2018-09-23T21:23:19.983Z,82.50
2018-09-23T21:25:48.828Z,82.00
2018-09-23T21:28:17.565Z,82.00
2018-09-23T21:30:47.355Z,82.00
2018-09-23T21:33:16.130Z,82.00
2018-09-23T21:35:44.946Z,82.00
2018-09-23T21:38:13.680Z,81.80
2018-09-23T21:40:42.452Z,82.00
2018-09-23T21:43:11.263Z,81.90
2018-09-23T21:45:40.032Z,81.80
2018-09-23T21:48:08.930Z,81.80
2018-09-23T21:50:37.695Z,81.90
2018-09-23T21:53:06.498Z,81.70
2018-09-23T21:55:35.232Z,81.80
2018-09-23T21:58:03.993Z,81.80
2018-09-23T22:00:38.019Z,81.80
2018-09-23T22:03:06.820Z,81.80
2018-09-23T22:05:35.611Z,81.90
2018-09-23T22:08:04.401Z,81.80
2018-09-23T22:10:33.154Z,81.70
2018-09-23T22:13:02.170Z,82.00
2018-09-23T22:15:31.284Z,81.70
2018-09-23T22:18:00.032Z,81.70
2018-09-23T22:20:28.792Z,81.20
2018-09-23T22:22:57.866Z,81.10
2018-09-23T22:25:26.668Z,80.80
2018-09-23T22:27:55.501Z,81.80
2018-09-23T22:30:24.377Z,81.50
2018-09-23T22:32:53.123Z,81.30
2018-09-23T22:35:22.044Z,81.40
2018-09-23T22:37:50.818Z,81.40
2018-09-23T22:40:19.618Z,81.00
2018-09-23T22:42:48.367Z,80.80
2018-09-23T22:45:17.172Z,80.40
2018-09-23T22:47:45.926Z,80.70
2018-09-23T22:50:14.677Z,79.10
2018-09-23T22:52:43.401Z,79.50
2018-09-23T22:55:12.228Z,79.50
2018-09-23T22:57:40.987Z,79.40
2018-09-23T23:00:09.798Z,77.80
2018-09-23T23:02:38.597Z,78.00
2018-09-23T23:05:09.339Z,79.00
2018-09-23T23:07:40.396Z,79.20
2018-09-23T23:10:12.034Z,79.10
2018-09-23T23:12:40.865Z,79.30
2018-09-23T23:15:09.640Z,80.30
2018-09-23T23:17:38.425Z,79.50
2018-09-23T23:20:07.305Z,79.90
2018-09-23T23:22:36.077Z,79.60
2018-09-23T23:25:04.871Z,79.50
2018-09-23T23:27:33.617Z,79.60
2018-09-23T23:30:02.425Z,79.60
2018-09-23T23:32:31.224Z,79.60
2018-09-23T23:35:00.056Z,79.70
2018-09-23T23:37:28.813Z,79.90
2018-09-23T23:39:57.555Z,80.00
2018-09-23T23:42:26.322Z,81.10
2018-09-23T23:44:55.135Z,80.20
2018-09-23T23:47:23.956Z,80.60
2018-09-23T23:49:52.707Z,80.50
2018-09-23T23:52:21.477Z,80.70
2018-09-23T23:54:50.227Z,80.70
2018-09-23T23:57:18.998Z,80.90
2018-09-23T23:59:47.791Z,80.90
